createdAt,value
2023-01-09T00:01:10.287Z,2.13
2023-01-09T00:04:12.354Z,1.65
2023-01-09T00:07:13.741Z,2.10
2023-01-09T00:10:15.129Z,2.15
2023-01-09T00:13:16.541Z,2.20
2023-01-09T00:16:18.914Z,2.00
2023-01-09T00:19:20.333Z,2.20
2023-01-09T00:22:21.752Z,2.08
2023-01-09T00:25:23.117Z,2.22
2023-01-09T00:28:24.445Z,2.10
2023-01-09T00:31:25.833Z,2.40
2023-01-09T00:34:27.255Z,2.20
2023-01-09T00:37:28.579Z,1.95
2023-01-09T00:40:29.997Z,2.30
2023-01-09T00:43:36.972Z,2.40
2023-01-09T00:46:43.306Z,2.58
2023-01-09T00:49:45.598Z,2.22
2023-01-09T00:52:48.362Z,2.63
2023-01-09T00:55:50.428Z,2.60
2023-01-09T00:58:53.019Z,2.28
2023-01-09T01:01:54.787Z,2.30
2023-01-09T01:04:56.182Z,2.45
2023-01-09T01:07:57.508Z,2.55
2023-01-09T01:10:58.853Z,3.20
2023-01-09T01:14:00.257Z,2.38
2023-01-09T01:17:01.717Z,2.67
2023-01-09T01:20:05.583Z,2.63
2023-01-09T01:23:07.219Z,2.78
2023-01-09T01:26:15.254Z,2.40
2023-01-09T01:29:16.598Z,2.97
2023-01-09T01:32:17.961Z,3.25
2023-01-09T01:35:19.415Z,2.92
2023-01-09T01:38:20.766Z,2.80
2023-01-09T01:41:22.127Z,2.78
2023-01-09T01:44:56.712Z,3.47
2023-01-09T01:47:58.005Z,2.90
2023-01-09T01:51:05.047Z,3.40
2023-01-09T01:54:13.702Z,3.00
2023-01-09T01:57:15.259Z,3.55
2023-01-09T02:00:21.415Z,3.05
2023-01-09T02:03:27.366Z,2.67
2023-01-09T02:06:30.262Z,3.35
2023-01-09T02:09:31.870Z,3.10
2023-01-09T02:12:33.218Z,2.70
2023-01-09T02:15:55.973Z,2.85
2023-01-09T02:19:27.368Z,2.80
2023-01-09T02:23:09.558Z,2.65
2023-01-09T02:26:47.869Z,2.55
2023-01-09T02:30:20.300Z,2.90
2023-01-09T02:33:59.077Z,2.70
2023-01-09T02:37:18.636Z,2.70
2023-01-09T02:40:29.285Z,3.10
2023-01-09T02:43:32.288Z,2.80
2023-01-09T02:46:33.888Z,3.00
2023-01-09T02:49:39.557Z,2.88
2023-01-09T02:52:58.987Z,2.60
2023-01-09T02:56:22.281Z,2.80
2023-01-09T02:59:31.745Z,3.40
2023-01-09T03:02:44.187Z,2.58
2023-01-09T03:05:56.454Z,3.47
2023-01-09T03:09:05.073Z,3.03
2023-01-09T03:12:17.718Z,3.45
2023-01-09T03:15:23.764Z,3.20
2023-01-09T03:18:28.669Z,3.35
2023-01-09T03:21:31.822Z,3.50
2023-01-09T03:24:33.251Z,3.55
2023-01-09T03:27:34.654Z,3.50
2023-01-09T03:30:36.577Z,3.78
2023-01-09T03:33:37.943Z,4.22
2023-01-09T03:36:39.276Z,3.70
2023-01-09T03:39:40.608Z,4.57
2023-01-09T03:42:41.963Z,4.30
2023-01-09T03:45:43.422Z,4.18
2023-01-09T03:48:44.825Z,4.45
2023-01-09T03:51:46.286Z,4.18
2023-01-09T03:54:47.670Z,4.20
2023-01-09T03:57:49.321Z,4.30
2023-01-09T04:00:51.739Z,4.20
2023-01-09T04:03:53.198Z,4.50
2023-01-09T04:06:54.558Z,5.03
2023-01-09T04:09:55.998Z,4.50
2023-01-09T04:12:57.643Z,4.38
2023-01-09T04:15:59.072Z,4.90
2023-01-09T04:19:00.783Z,4.75
2023-01-09T04:22:02.131Z,4.68
2023-01-09T04:25:04.279Z,5.25
2023-01-09T04:28:05.612Z,4.50
2023-01-09T04:31:07.127Z,5.40
2023-01-09T04:34:08.572Z,5.38
2023-01-09T04:37:09.981Z,4.93
2023-01-09T04:40:11.970Z,5.10
2023-01-09T04:43:13.387Z,5.13
2023-01-09T04:46:14.798Z,5.32
2023-01-09T04:49:16.202Z,5.70
2023-01-09T04:52:17.768Z,6.60
2023-01-09T04:55:19.114Z,6.05
2023-01-09T04:58:20.501Z,5.30
2023-01-09T05:01:22.271Z,5.07
2023-01-09T05:04:24.641Z,5.35
2023-01-09T05:07:26.018Z,5.75
2023-01-09T05:10:27.410Z,5.78
2023-01-09T05:13:28.749Z,5.47
2023-01-09T05:16:30.168Z,5.70
2023-01-09T05:19:31.533Z,5.80
2023-01-09T05:22:32.866Z,5.43
2023-01-09T05:25:34.220Z,5.13
2023-01-09T05:28:35.579Z,5.45
2023-01-09T05:31:36.955Z,5.90
2023-01-09T05:34:38.295Z,8.10
2023-01-09T05:37:39.647Z,5.93
2023-01-09T05:40:41.077Z,5.47
2023-01-09T05:43:42.408Z,6.07
2023-01-09T05:46:43.770Z,5.72
2023-01-09T05:49:45.142Z,5.40
2023-01-09T05:52:46.526Z,6.18
2023-01-09T05:55:47.882Z,6.78
2023-01-09T05:58:49.288Z,6.95
2023-01-09T06:01:50.699Z,6.75
2023-01-09T06:04:52.108Z,6.70
2023-01-09T06:07:53.515Z,6.80
2023-01-09T06:10:54.870Z,6.97
2023-01-09T06:13:56.220Z,6.55
2023-01-09T06:16:57.617Z,6.93
2023-01-09T06:19:58.993Z,6.65
2023-01-09T06:23:00.480Z,10.02
2023-01-09T06:26:01.869Z,6.15
2023-01-09T06:29:03.272Z,7.30
2023-01-09T06:32:05.189Z,7.70
2023-01-09T06:35:06.780Z,11.13
2023-01-09T06:38:08.166Z,12.35
2023-01-09T06:41:09.588Z,11.63
2023-01-09T06:44:11.057Z,10.50
2023-01-09T06:47:12.406Z,7.53
2023-01-09T06:50:13.799Z,8.05
2023-01-09T06:53:15.129Z,11.68
2023-01-09T06:56:16.491Z,8.75
2023-01-09T06:59:17.831Z,9.25
2023-01-09T07:02:20.739Z,8.32
2023-01-09T07:05:22.163Z,8.15
2023-01-09T07:08:23.570Z,8.55
2023-01-09T07:11:24.925Z,8.75
2023-01-09T07:14:26.296Z,9.15
2023-01-09T07:17:27.634Z,10.38
2023-01-09T07:20:29.479Z,9.68
2023-01-09T07:23:30.858Z,16.00
2023-01-09T07:26:32.267Z,18.88
2023-01-09T07:29:33.623Z,12.75
2023-01-09T07:32:34.963Z,17.27
2023-01-09T07:35:36.353Z,17.42
2023-01-09T07:38:37.702Z,21.05
2023-01-09T07:41:39.347Z,15.43
2023-01-09T07:44:43.982Z,12.00
2023-01-09T07:47:45.354Z,10.52
2023-01-09T07:50:46.724Z,9.68
2023-01-09T07:53:48.076Z,9.18
2023-01-09T07:56:49.634Z,10.48
2023-01-09T07:59:50.966Z,9.43
2023-01-09T08:02:53.290Z,9.40
2023-01-09T08:05:54.987Z,9.48
2023-01-09T08:08:56.319Z,10.55
2023-01-09T08:11:57.851Z,10.35
2023-01-09T08:14:59.221Z,9.82
2023-01-09T08:18:00.596Z,9.65
2023-01-09T08:21:01.973Z,10.27
2023-01-09T08:24:03.383Z,11.90
2023-01-09T08:27:04.775Z,9.23
2023-01-09T08:30:06.889Z,8.77
2023-01-09T08:33:08.281Z,18.60
2023-01-09T08:36:09.888Z,26.63
2023-01-09T08:39:11.303Z,10.15
2023-01-09T08:42:12.659Z,12.65
2023-01-09T08:45:14.024Z,11.13
2023-01-09T08:48:15.733Z,11.57
2023-01-09T08:51:17.062Z,11.85
2023-01-09T08:54:18.412Z,11.20
2023-01-09T08:57:19.742Z,11.73
2023-01-09T09:00:23.200Z,12.95
2023-01-09T09:03:25.138Z,12.43
2023-01-09T09:06:26.542Z,15.68
2023-01-09T09:09:27.918Z,10.70
2023-01-09T09:12:29.270Z,11.10
2023-01-09T09:15:30.703Z,9.00
2023-01-09T09:18:32.062Z,10.18
2023-01-09T09:21:33.406Z,9.93
2023-01-09T09:24:34.740Z,9.52
2023-01-09T09:27:36.093Z,9.35
2023-01-09T09:30:38.601Z,10.15
2023-01-09T09:33:39.934Z,10.60
2023-01-09T09:36:41.338Z,9.18
2023-01-09T09:39:42.699Z,8.30
2023-01-09T09:43:00.348Z,8.38
2023-01-09T09:46:15.468Z,10.18
2023-01-09T09:49:23.947Z,12.93
2023-01-09T09:52:50.688Z,16.45
2023-01-09T09:55:54.380Z,9.65
2023-01-09T09:59:02.358Z,9.37
2023-01-09T10:02:09.867Z,9.00
2023-01-09T10:05:37.065Z,9.35
2023-01-09T10:09:21.961Z,10.45
2023-01-09T10:12:32.086Z,10.32
2023-01-09T10:15:44.626Z,9.55
2023-01-09T10:19:10.356Z,8.93
2023-01-09T10:22:27.013Z,9.15
2023-01-09T10:25:36.856Z,8.60
2023-01-09T10:29:02.876Z,8.07
2023-01-09T10:32:18.026Z,8.25
2023-01-09T10:35:47.729Z,7.30
2023-01-09T10:38:52.959Z,7.78
2023-01-09T10:42:04.854Z,7.57
2023-01-09T10:45:16.881Z,7.82
2023-01-09T10:48:26.347Z,7.25
2023-01-09T10:51:37.007Z,7.50
2023-01-09T10:54:49.226Z,7.13
2023-01-09T10:57:57.149Z,6.05
2023-01-09T11:01:00.012Z,9.43
2023-01-09T11:04:01.401Z,11.02
2023-01-09T11:07:16.319Z,10.25
2023-01-09T11:10:18.489Z,11.13
2023-01-09T11:13:24.594Z,9.02
2023-01-09T11:16:26.028Z,7.50
2023-01-09T11:19:28.049Z,8.40
2023-01-09T11:22:29.559Z,7.78
2023-01-09T11:25:31.294Z,6.63
2023-01-09T11:28:32.656Z,6.68
2023-01-09T11:31:34.328Z,6.72
2023-01-09T11:34:36.634Z,6.57
2023-01-09T11:37:38.072Z,4.82
2023-01-09T11:40:56.319Z,5.40
2023-01-09T11:44:00.155Z,5.60
2023-01-09T11:47:21.597Z,4.75
2023-01-09T11:50:24.087Z,4.35
2023-01-09T11:53:26.787Z,5.37
2023-01-09T11:56:29.546Z,4.95
2023-01-09T11:59:31.401Z,4.32
2023-01-09T12:02:46.197Z,4.25
2023-01-09T12:05:50.518Z,4.88
2023-01-09T12:08:59.251Z,4.70
2023-01-09T12:12:07.385Z,5.00
2023-01-09T12:15:39.693Z,5.47
2023-01-09T12:18:49.828Z,5.47
2023-01-09T12:21:57.206Z,5.30
2023-01-09T12:25:04.577Z,5.57
2023-01-09T12:28:20.000Z,6.60
2023-01-09T12:31:21.350Z,6.43
2023-01-09T12:34:22.644Z,6.47
2023-01-09T12:37:55.313Z,6.60
2023-01-09T12:41:14.431Z,7.18
2023-01-09T12:44:40.803Z,7.35
2023-01-09T12:47:47.218Z,6.70
2023-01-09T12:50:51.371Z,7.93
2023-01-09T12:54:29.905Z,9.02
2023-01-09T12:57:35.766Z,7.85
2023-01-09T13:00:49.485Z,8.70
2023-01-09T13:04:15.037Z,8.18
2023-01-09T13:07:22.950Z,8.88
2023-01-09T13:10:31.276Z,8.15
2023-01-09T13:13:57.160Z,7.55
2023-01-09T13:17:01.967Z,7.00
2023-01-09T13:20:17.365Z,7.47
2023-01-09T13:23:40.194Z,7.88
2023-01-09T13:26:55.675Z,8.30
2023-01-09T13:30:19.822Z,7.78
2023-01-09T13:33:26.651Z,8.80
2023-01-09T13:36:32.008Z,8.02
2023-01-09T13:39:34.912Z,8.57
2023-01-09T13:42:36.392Z,9.15
2023-01-09T13:45:39.358Z,8.13
2023-01-09T13:48:41.665Z,7.85
2023-01-09T13:51:42.956Z,8.13
2023-01-09T13:54:53.317Z,7.38
2023-01-09T13:58:03.788Z,7.70
2023-01-09T14:01:25.136Z,7.93
2023-01-09T14:04:36.265Z,8.15
2023-01-09T14:07:50.439Z,8.63
2023-01-09T14:11:03.921Z,7.80
2023-01-09T14:14:14.817Z,7.97
2023-01-09T14:17:18.631Z,8.05
2023-01-09T14:20:37.435Z,8.30
2023-01-09T14:23:52.836Z,7.20
2023-01-09T14:26:58.077Z,7.35
2023-01-09T14:30:30.433Z,7.97
2023-01-09T14:33:31.926Z,8.25
2023-01-09T14:36:34.536Z,6.78
2023-01-09T14:39:36.112Z,7.50
2023-01-09T14:42:41.391Z,7.63
2023-01-09T14:45:49.177Z,7.07
2023-01-09T14:49:15.697Z,6.90
2023-01-09T14:53:12.690Z,6.80
2023-01-09T14:56:29.802Z,6.68
2023-01-09T14:59:31.220Z,6.80
2023-01-09T15:02:36.564Z,6.60
2023-01-09T15:05:38.016Z,7.10
2023-01-09T15:08:39.534Z,7.05
2023-01-09T15:11:41.125Z,6.70
2023-01-09T15:14:45.437Z,7.53
2023-01-09T15:17:54.726Z,8.23
2023-01-09T15:21:01.553Z,7.72
2023-01-09T15:24:20.225Z,8.45
2023-01-09T15:27:22.070Z,8.20
2023-01-09T15:30:26.428Z,8.00
2023-01-09T15:33:28.518Z,9.30
2023-01-09T15:36:30.206Z,8.85
2023-01-09T15:39:36.418Z,10.75
2023-01-09T15:42:39.222Z,12.45
2023-01-09T15:45:43.284Z,12.18
2023-01-09T15:48:44.803Z,11.02
2023-01-09T15:51:48.226Z,11.48
2023-01-09T15:57:52.382Z,10.75
2023-01-09T16:00:58.507Z,9.32
2023-01-09T16:04:08.081Z,9.95
2023-01-09T16:07:14.476Z,10.98
2023-01-09T16:10:34.845Z,22.08
2023-01-09T16:13:43.619Z,28.70
2023-01-09T16:16:46.705Z,25.95
2023-01-09T16:19:56.720Z,18.48
2023-01-09T16:22:58.132Z,14.43
2023-01-09T16:26:21.445Z,13.50
2023-01-09T16:29:27.467Z,16.27
2023-01-09T16:32:33.604Z,16.92
2023-01-09T16:35:34.944Z,18.13
2023-01-09T16:38:36.297Z,16.15
2023-01-09T16:41:42.135Z,17.20
2023-01-09T16:44:43.484Z,19.98
2023-01-09T16:47:45.851Z,22.38
2023-01-09T16:50:47.604Z,20.17
2023-01-09T16:53:52.336Z,18.83
2023-01-09T16:56:54.318Z,20.05
2023-01-09T16:59:57.204Z,18.60
2023-01-09T17:02:58.571Z,19.15
2023-01-09T17:06:01.028Z,19.40
2023-01-09T17:09:02.394Z,17.73
2023-01-09T17:12:03.920Z,16.73
2023-01-09T17:15:05.778Z,15.93
2023-01-09T17:18:14.797Z,15.52
2023-01-09T17:21:24.894Z,16.75
2023-01-09T17:24:26.265Z,14.95
2023-01-09T17:27:33.401Z,13.70
2023-01-09T17:30:34.736Z,19.05
2023-01-09T17:33:37.686Z,22.73
2023-01-09T17:36:39.141Z,23.40
2023-01-09T17:39:40.518Z,25.13
2023-01-09T17:42:41.895Z,24.10
2023-01-09T17:45:43.323Z,36.15
2023-01-09T17:48:44.702Z,45.10
2023-01-09T17:51:46.126Z,35.88
2023-01-09T17:54:47.450Z,50.80
2023-01-09T17:57:48.790Z,51.25
2023-01-09T18:00:50.134Z,36.15
2023-01-09T18:03:51.522Z,41.90
2023-01-09T18:06:52.890Z,25.60
2023-01-09T18:09:54.237Z,19.23
2023-01-09T18:12:56.120Z,17.42
2023-01-09T18:15:57.532Z,20.08
2023-01-09T18:18:59.039Z,20.02
2023-01-09T18:22:00.451Z,33.35
2023-01-09T18:25:02.307Z,28.23
2023-01-09T18:28:03.911Z,21.38
2023-01-09T18:31:06.150Z,20.08
2023-01-09T18:34:09.172Z,19.40
2023-01-09T18:37:10.777Z,21.48
2023-01-09T18:40:12.435Z,25.85
2023-01-09T18:43:13.799Z,23.55
2023-01-09T18:46:15.332Z,23.33
2023-01-09T18:49:16.757Z,24.85
2023-01-09T18:52:18.137Z,30.45
2023-01-09T18:55:19.585Z,23.55
2023-01-09T18:58:20.957Z,21.55
2023-01-09T19:01:23.410Z,21.42
2023-01-09T19:04:24.778Z,22.53
2023-01-09T19:07:26.188Z,20.17
2023-01-09T19:10:27.565Z,22.63
2023-01-09T19:13:31.597Z,24.67
2023-01-09T19:16:33.002Z,22.73
2023-01-09T19:19:34.511Z,21.10
2023-01-09T19:22:35.895Z,22.80
2023-01-09T19:25:37.289Z,21.13
2023-01-09T19:28:39.013Z,21.90
2023-01-09T19:31:41.533Z,24.10
2023-01-09T19:34:42.972Z,26.60
2023-01-09T19:37:44.369Z,30.38
2023-01-09T19:40:46.011Z,27.92
2023-01-09T19:43:47.791Z,23.77
2023-01-09T19:46:49.146Z,22.15
2023-01-09T19:49:50.676Z,22.13
2023-01-09T19:52:52.019Z,22.13
2023-01-09T19:55:53.376Z,21.83
2023-01-09T19:58:57.282Z,22.73
2023-01-09T20:01:58.712Z,22.60
2023-01-09T20:05:00.089Z,20.77
2023-01-09T20:08:01.456Z,20.33
2023-01-09T20:11:04.808Z,28.20
2023-01-09T20:17:07.488Z,27.15
2023-01-09T20:20:10.008Z,20.63
2023-01-09T20:23:11.505Z,22.83
2023-01-09T20:26:12.897Z,22.48
2023-01-09T20:29:14.338Z,23.25
2023-01-09T20:32:15.700Z,21.00
2023-01-09T20:35:17.052Z,18.90
2023-01-09T20:38:18.449Z,22.48
2023-01-09T20:41:20.197Z,20.83
2023-01-09T20:44:21.712Z,18.70
2023-01-09T20:47:23.053Z,18.80
2023-01-09T20:50:24.467Z,16.67
2023-01-09T20:53:25.813Z,17.33
2023-01-09T20:56:29.804Z,18.13
2023-01-09T20:59:31.383Z,16.20
2023-01-09T21:02:34.087Z,17.60
2023-01-09T21:05:40.266Z,15.50
2023-01-09T21:08:42.054Z,17.33
2023-01-09T21:11:43.407Z,18.58
2023-01-09T21:14:44.751Z,18.55
2023-01-09T21:17:46.090Z,20.10
2023-01-09T21:20:47.441Z,17.95
2023-01-09T21:23:53.269Z,18.42
2023-01-09T21:26:54.611Z,18.02
2023-01-09T21:29:55.980Z,17.58
2023-01-09T21:32:57.419Z,17.48
2023-01-09T21:35:58.898Z,18.27
2023-01-09T21:39:01.266Z,17.45
2023-01-09T21:42:02.641Z,17.70
2023-01-09T21:45:04.388Z,16.58
2023-01-09T21:48:06.225Z,19.67
2023-01-09T21:51:07.569Z,24.60
2023-01-09T21:54:09.254Z,20.17
2023-01-09T21:57:10.944Z,20.35
2023-01-09T22:00:12.896Z,19.63
2023-01-09T22:03:16.492Z,21.00
2023-01-09T22:06:17.829Z,20.50
2023-01-09T22:09:19.187Z,16.55
2023-01-09T22:12:20.534Z,16.50
2023-01-09T22:15:21.881Z,21.92
2023-01-09T22:18:23.218Z,19.92
2023-01-09T22:21:25.403Z,15.57
2023-01-09T22:24:26.736Z,16.92
2023-01-09T22:27:28.085Z,15.57
2023-01-09T22:30:29.490Z,19.52
2023-01-09T22:33:30.853Z,15.60
2023-01-09T22:36:32.492Z,21.77
2023-01-09T22:39:33.917Z,17.08
2023-01-09T22:42:37.327Z,19.05
2023-01-09T22:48:40.039Z,14.20
2023-01-09T22:51:41.362Z,12.75
2023-01-09T22:54:42.751Z,12.70
2023-01-09T22:57:44.183Z,13.38
2023-01-09T23:00:45.511Z,13.73
2023-01-09T23:03:47.054Z,12.00
2023-01-09T23:06:48.417Z,11.73
2023-01-09T23:09:49.795Z,13.65
2023-01-09T23:12:51.153Z,10.95
2023-01-09T23:15:53.315Z,11.95
2023-01-09T23:18:54.700Z,10.65
2023-01-09T23:21:56.212Z,10.70
2023-01-09T23:24:57.573Z,9.93
2023-01-09T23:27:58.949Z,10.50
2023-01-09T23:31:00.318Z,10.07
2023-01-09T23:34:02.363Z,10.02
2023-01-09T23:37:03.784Z,9.48
2023-01-09T23:40:05.621Z,9.70
2023-01-09T23:43:08.791Z,9.70
2023-01-09T23:46:10.577Z,8.95
2023-01-09T23:49:11.940Z,9.48
2023-01-09T23:52:13.353Z,8.55
2023-01-09T23:55:14.759Z,10.13
2023-01-09T23:58:16.207Z,8.70
